NAX098 ESSA-EHRD
Flight info
| Callsign | NAX098 |
|---|---|
| Flight time | N/A |
| Altitude | 38000 |
| Route | PETEV2K PETEV N872 ELPAX DCT ALASA DCT BLUFA BLUFA1R |
| Aircraft | B738/M-SDE2E3FGHIRWXY/LB1 |
Departure
| Time | 2026-05-01 14:05 |
|---|---|
| Airport | Stockholm-Arlanda Airport (ESSA) |
Arrival
| Time | N/A |
|---|---|
| Airport | Rotterdam The Hague Airport (EHRD) |
| Time | Latitude | Longitude | Altitude | Speed | Heading |
|---|---|---|---|---|---|
| 2026-05-01 13:33 | 59.65434 | 17.93508 | 137 ft | 0 kts | 74° |
| 2026-05-01 13:57 | 59.65433 | 17.93504 | 137 ft | 3 kts | 74° |
| 2026-05-01 13:57 | 59.65425 | 17.93456 | 137 ft | 4 kts | 64° |
| 2026-05-01 13:57 | 59.65411 | 17.93411 | 155 ft | 4 kts | 48° |
| 2026-05-01 13:58 | 59.65391 | 17.93380 | 129 ft | 4 kts | 15° |
| 2026-05-01 13:58 | 59.65376 | 17.93377 | 137 ft | 0 kts | 344° |
| 2026-05-01 14:00 | 59.65390 | 17.93369 | 132 ft | 6 kts | 345° |
| 2026-05-01 14:00 | 59.65475 | 17.93330 | 137 ft | 18 kts | 358° |
| 2026-05-01 14:00 | 59.65621 | 17.93376 | 137 ft | 25 kts | 56° |
| 2026-05-01 14:01 | 59.65674 | 17.93747 | 137 ft | 31 kts | 77° |
| 2026-05-01 14:01 | 59.65726 | 17.94183 | 137 ft | 34 kts | 75° |
| 2026-05-01 14:01 | 59.65786 | 17.94626 | 137 ft | 33 kts | 75° |
| 2026-05-01 14:01 | 59.65841 | 17.95050 | 137 ft | 31 kts | 76° |
| 2026-05-01 14:02 | 59.65891 | 17.95452 | 137 ft | 29 kts | 76° |
| 2026-05-01 14:02 | 59.65938 | 17.95830 | 137 ft | 27 kts | 76° |
| 2026-05-01 14:02 | 59.65985 | 17.96183 | 137 ft | 26 kts | 75° |
| 2026-05-01 14:02 | 59.66030 | 17.96512 | 137 ft | 24 kts | 75° |
| 2026-05-01 14:03 | 59.66068 | 17.96817 | 137 ft | 23 kts | 76° |
| 2026-05-01 14:03 | 59.66105 | 17.97117 | 137 ft | 22 kts | 77° |
| 2026-05-01 14:03 | 59.66139 | 17.97410 | 137 ft | 21 kts | 77° |
| 2026-05-01 14:03 | 59.66179 | 17.97689 | 137 ft | 21 kts | 62° |
| 2026-05-01 14:04 | 59.66276 | 17.97893 | 137 ft | 20 kts | 38° |
| 2026-05-01 14:04 | 59.66373 | 17.97856 | 135 ft | 15 kts | 295° |
| 2026-05-01 14:04 | 59.66358 | 17.97671 | 136 ft | 22 kts | 255° |
| 2026-05-01 14:04 | 59.66304 | 17.97256 | 137 ft | 70 kts | 256° |
| 2026-05-01 14:05 | 59.66055 | 17.95288 | 147 ft | 147 kts | 255° |
| 2026-05-01 14:05 | 59.65815 | 17.93248 | 684 ft | 154 kts | 256° |
| 2026-05-01 14:05 | 59.65568 | 17.91164 | 1387 ft | 157 kts | 256° |
| 2026-05-01 14:05 | 59.65371 | 17.88973 | 1961 ft | 172 kts | 270° |
| 2026-05-01 14:06 | 59.65486 | 17.86495 | 2419 ft | 189 kts | 275° |
| 2026-05-01 14:06 | 59.65581 | 17.83944 | 3062 ft | 192 kts | 274° |
| 2026-05-01 14:06 | 59.65655 | 17.81156 | 3284 ft | 215 kts | 273° |
| 2026-05-01 14:06 | 59.65709 | 17.78034 | 3551 ft | 238 kts | 272° |
| 2026-05-01 14:07 | 59.65749 | 17.74684 | 4179 ft | 245 kts | 272° |
| 2026-05-01 14:07 | 59.65787 | 17.71327 | 4716 ft | 241 kts | 273° |
| 2026-05-01 14:07 | 59.65764 | 17.67993 | 5142 ft | 249 kts | 262° |
| 2026-05-01 14:08 | 59.63806 | 17.62268 | 6688 ft | 266 kts | 223° |
| 2026-05-01 14:08 | 59.62306 | 17.60063 | 7413 ft | 271 kts | 221° |
| 2026-05-01 14:08 | 59.60785 | 17.57909 | 8174 ft | 274 kts | 220° |
| 2026-05-01 14:08 | 59.59224 | 17.55708 | 8981 ft | 277 kts | 220° |
| 2026-05-01 14:09 | 59.57646 | 17.53477 | 9793 ft | 280 kts | 220° |
| 2026-05-01 14:09 | 59.56043 | 17.51202 | 10437 ft | 290 kts | 221° |
| 2026-05-01 14:09 | 59.54335 | 17.48760 | 10629 ft | 316 kts | 220° |
| 2026-05-01 14:09 | 59.52503 | 17.46138 | 11008 ft | 332 kts | 220° |
| 2026-05-01 14:10 | 59.50633 | 17.43475 | 11689 ft | 337 kts | 221° |
| 2026-05-01 14:10 | 59.48705 | 17.40735 | 12531 ft | 338 kts | 221° |
| 2026-05-01 14:10 | 59.46808 | 17.38039 | 13312 ft | 342 kts | 221° |
| 2026-05-01 14:10 | 59.44869 | 17.35283 | 14082 ft | 346 kts | 221° |
| 2026-05-01 14:11 | 59.42906 | 17.32495 | 14821 ft | 349 kts | 221° |
| 2026-05-01 14:11 | 59.38942 | 17.26874 | 16191 ft | 354 kts | 222° |
| 2026-05-01 14:11 | 59.36933 | 17.24030 | 16879 ft | 357 kts | 222° |
| 2026-05-01 14:12 | 59.34905 | 17.21162 | 17533 ft | 360 kts | 221° |
| 2026-05-01 14:12 | 59.32861 | 17.18278 | 18187 ft | 364 kts | 222° |
| 2026-05-01 14:12 | 59.30798 | 17.15370 | 18788 ft | 367 kts | 221° |
| 2026-05-01 14:12 | 59.28740 | 17.12474 | 19332 ft | 370 kts | 221° |
| 2026-05-01 14:13 | 59.26635 | 17.09515 | 19872 ft | 374 kts | 221° |
| 2026-05-01 14:13 | 59.25234 | 17.07547 | 20228 ft | 376 kts | 221° |
| 2026-05-01 14:13 | 59.22367 | 17.03531 | 20945 ft | 380 kts | 221° |
| 2026-05-01 14:13 | 59.20213 | 17.00489 | 21469 ft | 382 kts | 223° |
| 2026-05-01 14:14 | 59.18148 | 16.97282 | 21965 ft | 384 kts | 225° |
| 2026-05-01 14:14 | 59.16098 | 16.93913 | 22473 ft | 387 kts | 225° |
| 2026-05-01 14:14 | 59.14041 | 16.90489 | 22965 ft | 390 kts | 225° |
| 2026-05-01 14:14 | 59.11960 | 16.87040 | 23467 ft | 394 kts | 225° |
| 2026-05-01 14:15 | 59.09858 | 16.83585 | 23909 ft | 397 kts | 225° |
| 2026-05-01 14:15 | 59.07733 | 16.80118 | 24307 ft | 400 kts | 225° |
| 2026-05-01 14:15 | 59.05587 | 16.76639 | 24717 ft | 403 kts | 224° |
| 2026-05-01 14:15 | 59.03427 | 16.73150 | 25118 ft | 405 kts | 224° |
| 2026-05-01 14:16 | 59.01273 | 16.69680 | 25504 ft | 408 kts | 224° |
| 2026-05-01 14:16 | 58.99079 | 16.66150 | 25882 ft | 410 kts | 224° |
| 2026-05-01 14:16 | 58.96865 | 16.62595 | 26261 ft | 413 kts | 224° |
| 2026-05-01 14:16 | 58.94644 | 16.59031 | 26643 ft | 415 kts | 224° |
| 2026-05-01 14:17 | 58.92410 | 16.55453 | 26981 ft | 418 kts | 224° |
| 2026-05-01 14:17 | 58.90182 | 16.51894 | 27331 ft | 420 kts | 224° |
| 2026-05-01 14:17 | 58.87914 | 16.48295 | 27680 ft | 423 kts | 223° |
| 2026-05-01 14:17 | 58.85628 | 16.44685 | 28013 ft | 425 kts | 223° |
| 2026-05-01 14:18 | 58.83327 | 16.41061 | 28338 ft | 428 kts | 223° |
| 2026-05-01 14:18 | 58.81013 | 16.37421 | 28674 ft | 430 kts | 223° |
| 2026-05-01 14:18 | 58.78686 | 16.33761 | 28990 ft | 432 kts | 223° |
| 2026-05-01 14:18 | 58.77143 | 16.31337 | 29196 ft | 434 kts | 223° |
| 2026-05-01 14:19 | 58.74001 | 16.26410 | 29595 ft | 437 kts | 223° |
| 2026-05-01 14:19 | 58.71639 | 16.22713 | 29894 ft | 439 kts | 223° |
| 2026-05-01 14:19 | 58.69265 | 16.18994 | 30173 ft | 441 kts | 223° |
| 2026-05-01 14:19 | 58.66879 | 16.15257 | 30418 ft | 443 kts | 223° |
| 2026-05-01 14:20 | 58.64485 | 16.11512 | 30659 ft | 444 kts | 223° |
| 2026-05-01 14:20 | 58.59704 | 16.04055 | 31171 ft | 446 kts | 223° |
| 2026-05-01 14:20 | 58.57293 | 16.00305 | 31467 ft | 446 kts | 223° |
| 2026-05-01 14:21 | 58.54881 | 15.96562 | 31833 ft | 445 kts | 223° |
| 2026-05-01 14:21 | 58.52482 | 15.92845 | 32207 ft | 443 kts | 223° |
| 2026-05-01 14:21 | 58.50079 | 15.89128 | 32545 ft | 443 kts | 222° |
| 2026-05-01 14:22 | 58.45287 | 15.81730 | 33195 ft | 441 kts | 222° |
| 2026-05-01 14:22 | 58.42898 | 15.78053 | 33535 ft | 440 kts | 222° |
| 2026-05-01 14:22 | 58.40542 | 15.74435 | 33855 ft | 440 kts | 222° |
| 2026-05-01 14:22 | 58.38153 | 15.70769 | 34159 ft | 440 kts | 222° |
| 2026-05-01 14:23 | 58.35769 | 15.67110 | 34434 ft | 439 kts | 222° |
| 2026-05-01 14:23 | 58.33392 | 15.63464 | 34694 ft | 439 kts | 222° |
| 2026-05-01 14:23 | 58.31008 | 15.59811 | 34963 ft | 439 kts | 222° |
| 2026-05-01 14:23 | 58.28615 | 15.56152 | 35225 ft | 439 kts | 222° |
| 2026-05-01 14:24 | 58.26240 | 15.52526 | 35486 ft | 439 kts | 222° |
| 2026-05-01 14:24 | 58.23885 | 15.48938 | 35742 ft | 439 kts | 222° |
| 2026-05-01 14:24 | 58.21500 | 15.45310 | 35971 ft | 439 kts | 222° |
| 2026-05-01 14:24 | 58.19115 | 15.41689 | 36233 ft | 438 kts | 222° |
| 2026-05-01 14:25 | 58.16735 | 15.38081 | 36487 ft | 438 kts | 222° |
| 2026-05-01 14:25 | 58.14352 | 15.34473 | 36719 ft | 438 kts | 222° |
| 2026-05-01 14:25 | 58.11968 | 15.30872 | 36954 ft | 438 kts | 222° |
| 2026-05-01 14:25 | 58.09586 | 15.27256 | 37197 ft | 437 kts | 224° |
| 2026-05-01 14:26 | 58.07365 | 15.23459 | 37440 ft | 435 kts | 227° |
| 2026-05-01 14:26 | 58.03015 | 15.15521 | 37891 ft | 434 kts | 227° |
| 2026-05-01 14:26 | 58.00856 | 15.11535 | 38109 ft | 434 kts | 227° |
| 2026-05-01 14:27 | 57.98696 | 15.07562 | 38237 ft | 435 kts | 227° |
| 2026-05-01 14:27 | 57.94329 | 14.99602 | 38237 ft | 435 kts | 227° |
| 2026-05-01 14:28 | 57.87816 | 14.87868 | 38242 ft | 431 kts | 227° |
| 2026-05-01 14:28 | 57.83486 | 14.80111 | 38241 ft | 429 kts | 227° |
| 2026-05-01 14:29 | 57.79166 | 14.72396 | 38245 ft | 428 kts | 227° |
| 2026-05-01 14:30 | 57.70510 | 14.57017 | 38258 ft | 430 kts | 226° |
| 2026-05-01 14:31 | 57.64708 | 14.46768 | 38263 ft | 432 kts | 226° |
| 2026-05-01 14:31 | 57.60323 | 14.39053 | 38269 ft | 434 kts | 226° |
| 2026-05-01 14:32 | 57.55912 | 14.31322 | 38262 ft | 436 kts | 226° |
| 2026-05-01 14:32 | 57.51485 | 14.23589 | 38279 ft | 437 kts | 226° |
| 2026-05-01 14:33 | 57.47038 | 14.15848 | 38287 ft | 438 kts | 226° |
| 2026-05-01 14:33 | 57.42607 | 14.08163 | 38294 ft | 439 kts | 226° |
| 2026-05-01 14:34 | 57.38140 | 14.00441 | 38290 ft | 439 kts | 226° |
| 2026-05-01 14:34 | 57.33668 | 13.92738 | 38289 ft | 438 kts | 225° |
| 2026-05-01 14:35 | 57.29191 | 13.85054 | 38291 ft | 438 kts | 225° |
| 2026-05-01 14:35 | 57.24748 | 13.77454 | 38291 ft | 437 kts | 225° |
| 2026-05-01 14:36 | 57.20277 | 13.69832 | 38295 ft | 437 kts | 225° |
| 2026-05-01 14:36 | 57.15804 | 13.62233 | 38303 ft | 436 kts | 225° |
| 2026-05-01 14:37 | 57.11370 | 13.54725 | 38305 ft | 435 kts | 225° |
| 2026-05-01 14:37 | 57.06900 | 13.47183 | 38307 ft | 435 kts | 225° |
| 2026-05-01 14:38 | 57.02433 | 13.39671 | 38315 ft | 435 kts | 225° |
| 2026-05-01 14:38 | 56.97953 | 13.32163 | 38322 ft | 435 kts | 224° |
| 2026-05-01 14:39 | 56.93501 | 13.24727 | 38322 ft | 436 kts | 224° |
| 2026-05-01 14:39 | 56.89004 | 13.17241 | 38332 ft | 436 kts | 224° |
| 2026-05-01 14:40 | 56.84510 | 13.09787 | 38345 ft | 437 kts | 224° |
| 2026-05-01 14:40 | 56.80002 | 13.02333 | 38347 ft | 437 kts | 224° |
| 2026-05-01 14:41 | 56.75476 | 12.94876 | 38345 ft | 438 kts | 224° |
| 2026-05-01 14:41 | 56.70977 | 12.87489 | 38346 ft | 438 kts | 224° |
| 2026-05-01 14:42 | 56.66436 | 12.80058 | 38346 ft | 439 kts | 224° |
| 2026-05-01 14:42 | 56.61886 | 12.72636 | 38345 ft | 439 kts | 224° |
| 2026-05-01 14:43 | 56.57340 | 12.65247 | 38349 ft | 439 kts | 223° |
| 2026-05-01 14:43 | 56.52786 | 12.57870 | 38351 ft | 438 kts | 223° |
| 2026-05-01 14:44 | 56.48234 | 12.50519 | 38349 ft | 438 kts | 223° |
| 2026-05-01 14:44 | 56.41420 | 12.39563 | 38359 ft | 438 kts | 223° |
| 2026-05-01 14:45 | 56.34580 | 12.28620 | 38357 ft | 438 kts | 223° |
| 2026-05-01 14:46 | 56.30008 | 12.21337 | 38351 ft | 438 kts | 223° |
| 2026-05-01 14:46 | 56.23155 | 12.10462 | 38349 ft | 437 kts | 223° |
| 2026-05-01 14:47 | 56.18607 | 12.03276 | 38349 ft | 437 kts | 223° |
| 2026-05-01 14:48 | 56.11735 | 11.92462 | 38346 ft | 438 kts | 223° |
| 2026-05-01 14:48 | 56.04857 | 11.81693 | 38346 ft | 438 kts | 222° |
| 2026-05-01 14:49 | 55.95689 | 11.67420 | 38348 ft | 438 kts | 222° |
| 2026-05-01 14:50 | 55.86464 | 11.53152 | 38344 ft | 439 kts | 222° |
| 2026-05-01 14:51 | 55.79561 | 11.42535 | 38343 ft | 439 kts | 222° |
| 2026-05-01 14:52 | 55.72603 | 11.31887 | 38344 ft | 439 kts | 222° |
| 2026-05-01 14:53 | 55.65669 | 11.21326 | 38349 ft | 439 kts | 221° |
| 2026-05-01 14:53 | 55.61032 | 11.14292 | 38344 ft | 439 kts | 221° |
| 2026-05-01 14:54 | 55.56390 | 11.07273 | 38340 ft | 439 kts | 221° |
| 2026-05-01 14:54 | 55.51739 | 11.00265 | 38345 ft | 438 kts | 221° |
| 2026-05-01 14:55 | 55.47124 | 10.93332 | 38343 ft | 438 kts | 221° |
| 2026-05-01 14:55 | 55.42477 | 10.86373 | 38341 ft | 438 kts | 221° |
| 2026-05-01 14:56 | 55.37824 | 10.79428 | 38343 ft | 437 kts | 221° |
| 2026-05-01 14:56 | 55.33170 | 10.72503 | 38342 ft | 437 kts | 221° |
| 2026-05-01 14:57 | 55.28553 | 10.65655 | 38342 ft | 437 kts | 221° |
| 2026-05-01 14:57 | 55.21568 | 10.55336 | 38340 ft | 437 kts | 221° |
| 2026-05-01 14:58 | 55.16904 | 10.48472 | 38350 ft | 437 kts | 221° |
| 2026-05-01 14:58 | 55.12262 | 10.41663 | 38351 ft | 438 kts | 221° |
| 2026-05-01 14:59 | 55.07589 | 10.34828 | 38351 ft | 438 kts | 221° |
| 2026-05-01 14:59 | 55.02910 | 10.28008 | 38338 ft | 438 kts | 221° |
| 2026-05-01 15:00 | 54.95915 | 10.17851 | 38343 ft | 438 kts | 220° |
| 2026-05-01 15:01 | 54.91227 | 10.11070 | 38345 ft | 437 kts | 220° |
| 2026-05-01 15:01 | 54.86547 | 10.04317 | 38338 ft | 437 kts | 220° |
| 2026-05-01 15:02 | 54.81861 | 9.97579 | 38344 ft | 437 kts | 221° |
| 2026-05-01 15:02 | 54.77646 | 9.90040 | 38351 ft | 435 kts | 230° |
| 2026-05-01 15:03 | 54.73684 | 9.82100 | 38350 ft | 435 kts | 230° |
| 2026-05-01 15:03 | 54.69711 | 9.74167 | 38342 ft | 436 kts | 230° |
| 2026-05-01 15:04 | 54.65739 | 9.66326 | 38324 ft | 436 kts | 230° |
| 2026-05-01 15:04 | 54.61725 | 9.58465 | 38318 ft | 436 kts | 229° |
| 2026-05-01 15:05 | 54.57699 | 9.50617 | 38321 ft | 437 kts | 229° |
| 2026-05-01 15:05 | 54.53670 | 9.42785 | 38316 ft | 437 kts | 229° |
| 2026-05-01 15:06 | 54.49654 | 9.35004 | 38315 ft | 437 kts | 229° |
| 2026-05-01 15:06 | 54.45598 | 9.27170 | 38314 ft | 437 kts | 229° |
| 2026-05-01 15:07 | 54.41553 | 9.19380 | 38322 ft | 437 kts | 229° |
| 2026-05-01 15:07 | 54.37492 | 9.11586 | 38316 ft | 438 kts | 229° |
| 2026-05-01 15:08 | 54.33426 | 9.03808 | 38323 ft | 438 kts | 229° |
| 2026-05-01 15:08 | 54.29379 | 8.96091 | 38315 ft | 438 kts | 229° |
| 2026-05-01 15:09 | 54.25290 | 8.88317 | 38323 ft | 438 kts | 229° |
| 2026-05-01 15:09 | 54.21199 | 8.80570 | 38309 ft | 439 kts | 229° |
| 2026-05-01 15:10 | 54.17125 | 8.72874 | 38315 ft | 439 kts | 229° |
| 2026-05-01 15:10 | 54.10970 | 8.61292 | 38312 ft | 439 kts | 229° |
| 2026-05-01 15:11 | 54.04793 | 8.49728 | 38316 ft | 440 kts | 229° |
| 2026-05-01 15:12 | 54.00673 | 8.42044 | 38315 ft | 440 kts | 229° |
| 2026-05-01 15:12 | 53.94479 | 8.30538 | 38315 ft | 440 kts | 228° |
| 2026-05-01 15:14 | 53.84142 | 8.11459 | 38302 ft | 440 kts | 228° |
| 2026-05-01 15:14 | 53.77913 | 8.00034 | 38293 ft | 440 kts | 228° |
| 2026-05-01 15:15 | 53.69575 | 7.84821 | 37141 ft | 444 kts | 228° |
| 2026-05-01 15:16 | 53.65391 | 7.77227 | 36098 ft | 439 kts | 228° |
| 2026-05-01 15:16 | 53.61935 | 7.70972 | 35277 ft | 439 kts | 228° |
| 2026-05-01 15:17 | 53.57762 | 7.63435 | 34317 ft | 440 kts | 228° |
| 2026-05-01 15:18 | 53.51406 | 7.52003 | 32722 ft | 453 kts | 227° |
| 2026-05-01 15:18 | 53.49269 | 7.48172 | 32197 ft | 455 kts | 227° |
| 2026-05-01 15:19 | 53.42756 | 7.36535 | 30698 ft | 456 kts | 227° |
| 2026-05-01 15:19 | 53.38399 | 7.28781 | 29621 ft | 457 kts | 227° |
| 2026-05-01 15:19 | 53.36209 | 7.24893 | 29064 ft | 458 kts | 227° |
| 2026-05-01 15:20 | 53.31829 | 7.17134 | 27985 ft | 459 kts | 226° |
| 2026-05-01 15:20 | 53.29659 | 7.13299 | 27466 ft | 459 kts | 226° |
| 2026-05-01 15:20 | 53.27458 | 7.09418 | 26947 ft | 460 kts | 226° |
| 2026-05-01 15:21 | 53.25247 | 7.05523 | 26450 ft | 461 kts | 226° |
| 2026-05-01 15:21 | 53.23090 | 7.01729 | 26177 ft | 438 kts | 226° |
| 2026-05-01 15:21 | 53.21033 | 6.98116 | 25901 ft | 419 kts | 226° |
| 2026-05-01 15:21 | 53.19069 | 6.94670 | 25612 ft | 401 kts | 226° |
| 2026-05-01 15:22 | 53.15345 | 6.88154 | 24958 ft | 377 kts | 225° |
| 2026-05-01 15:22 | 53.13573 | 6.85060 | 24548 ft | 369 kts | 225° |
| 2026-05-01 15:22 | 53.11814 | 6.81992 | 24146 ft | 362 kts | 225° |
| 2026-05-01 15:23 | 53.10090 | 6.78989 | 23726 ft | 356 kts | 225° |
| 2026-05-01 15:23 | 53.08385 | 6.76021 | 23246 ft | 352 kts | 225° |
| 2026-05-01 15:23 | 53.06705 | 6.73103 | 22825 ft | 346 kts | 225° |
| 2026-05-01 15:23 | 53.05041 | 6.70216 | 22427 ft | 346 kts | 224° |
| 2026-05-01 15:24 | 53.03370 | 6.67322 | 22042 ft | 357 kts | 225° |
| 2026-05-01 15:24 | 53.01636 | 6.64320 | 21611 ft | 358 kts | 224° |
| 2026-05-01 15:24 | 52.99928 | 6.61366 | 21195 ft | 350 kts | 224° |
| 2026-05-01 15:24 | 52.98257 | 6.58479 | 20791 ft | 342 kts | 224° |
| 2026-05-01 15:25 | 52.96619 | 6.55652 | 20397 ft | 335 kts | 224° |
| 2026-05-01 15:25 | 52.95018 | 6.52891 | 20010 ft | 329 kts | 224° |
| 2026-05-01 15:25 | 52.93441 | 6.50175 | 19645 ft | 325 kts | 224° |
| 2026-05-01 15:25 | 52.91884 | 6.47499 | 19277 ft | 321 kts | 224° |
| 2026-05-01 15:26 | 52.90322 | 6.44817 | 18920 ft | 327 kts | 223° |
| 2026-05-01 15:26 | 52.88732 | 6.42093 | 18551 ft | 338 kts | 224° |
| 2026-05-01 15:26 | 52.87103 | 6.39298 | 18091 ft | 334 kts | 224° |
| 2026-05-01 15:26 | 52.85504 | 6.36558 | 17667 ft | 327 kts | 223° |
| 2026-05-01 15:27 | 52.83945 | 6.33890 | 17290 ft | 319 kts | 223° |
| 2026-05-01 15:27 | 52.82411 | 6.31308 | 16985 ft | 310 kts | 222° |
| 2026-05-01 15:27 | 52.80891 | 6.28805 | 16631 ft | 307 kts | 222° |
| 2026-05-01 15:28 | 52.77851 | 6.23838 | 15919 ft | 315 kts | 222° |
| 2026-05-01 15:28 | 52.76265 | 6.21252 | 15548 ft | 323 kts | 222° |
| 2026-05-01 15:28 | 52.74675 | 6.18656 | 15140 ft | 318 kts | 222° |
| 2026-05-01 15:29 | 52.71590 | 6.13613 | 14379 ft | 306 kts | 222° |
| 2026-05-01 15:29 | 52.70090 | 6.11163 | 14017 ft | 301 kts | 222° |
| 2026-05-01 15:29 | 52.67173 | 6.06409 | 13252 ft | 295 kts | 222° |
| 2026-05-01 15:30 | 52.64220 | 6.01611 | 12538 ft | 304 kts | 222° |
| 2026-05-01 15:31 | 52.58279 | 5.91971 | 11057 ft | 290 kts | 222° |
| 2026-05-01 15:31 | 52.55461 | 5.87412 | 10571 ft | 277 kts | 222° |
| 2026-05-01 15:32 | 52.52819 | 5.83145 | 10312 ft | 256 kts | 222° |
| 2026-05-01 15:32 | 52.50315 | 5.79112 | 9849 ft | 253 kts | 222° |
| 2026-05-01 15:33 | 52.46445 | 5.72892 | 8988 ft | 260 kts | 222° |
| 2026-05-01 15:34 | 52.42630 | 5.66769 | 8113 ft | 251 kts | 221° |